sensor_id;sensor_type;location;lat;lon;timestamp;pressure;altitude;pressure_sealevel;temperature;humidity
23473;BME280;11909;52.516;13.564;2023-07-16T00:02:00;100091.41;;;21.81;100.00
23473;BME280;11909;52.516;13.564;2023-07-16T00:04:30;100093.00;;;21.82;100.00
23473;BME280;11909;52.516;13.564;2023-07-16T00:06:59;100089.84;;;21.84;100.00
23473;BME280;11909;52.516;13.564;2023-07-16T00:09:27;100086.66;;;21.85;100.00
23473;BME280;11909;52.516;13.564;2023-07-16T00:11:56;100102.75;;;21.92;100.00
23473;BME280;11909;52.516;13.564;2023-07-16T00:14:24;100103.19;;;21.94;100.00
23473;BME280;11909;52.516;13.564;2023-07-16T00:16:52;100099.63;;;21.97;100.00
23473;BME280;11909;52.516;13.564;2023-07-16T00:19:21;100094.78;;;21.94;100.00
23473;BME280;11909;52.516;13.564;2023-07-16T00:21:49;100098.78;;;21.93;100.00
23473;BME280;11909;52.516;13.564;2023-07-16T00:24:17;100100.50;;;22.01;100.00
23473;BME280;11909;52.516;13.564;2023-07-16T00:26:45;100106.41;;;21.96;100.00
23473;BME280;11909;52.516;13.564;2023-07-16T00:29:13;100115.91;;;21.91;100.00
23473;BME280;11909;52.516;13.564;2023-07-16T00:31:41;100119.44;;;21.88;100.00
23473;BME280;11909;52.516;13.564;2023-07-16T00:34:08;100113.06;;;21.88;100.00
23473;BME280;11909;52.516;13.564;2023-07-16T00:36:42;100116.47;;;21.77;100.00
23473;BME280;11909;52.516;13.564;2023-07-16T00:39:10;100116.84;;;21.76;100.00
23473;BME280;11909;52.516;13.564;2023-07-16T00:41:38;100126.84;;;21.77;100.00
23473;BME280;11909;52.516;13.564;2023-07-16T00:44:06;100133.59;;;21.76;100.00
23473;BME280;11909;52.516;13.564;2023-07-16T00:46:35;100130.22;;;21.67;100.00
23473;BME280;11909;52.516;13.564;2023-07-16T00:49:03;100137.81;;;21.66;100.00
23473;BME280;11909;52.516;13.564;2023-07-16T00:51:31;100161.78;;;21.67;100.00
23473;BME280;11909;52.516;13.564;2023-07-16T00:54:01;100171.41;;;21.70;100.00
23473;BME280;11909;52.516;13.564;2023-07-16T00:56:29;100179.38;;;21.71;100.00
23473;BME280;11909;52.516;13.564;2023-07-16T00:58:57;100185.78;;;21.72;100.00
23473;BME280;11909;52.516;13.564;2023-07-16T01:01:25;100183.44;;;21.74;100.00
23473;BME280;11909;52.516;13.564;2023-07-16T01:03:53;100219.75;;;21.74;100.00
23473;BME280;11909;52.516;13.564;2023-07-16T01:06:25;100217.94;;;21.85;100.00
23473;BME280;11909;52.516;13.564;2023-07-16T01:09:01;100258.66;;;21.86;100.00
23473;BME280;11909;52.516;13.564;2023-07-16T01:11:30;100287.75;;;21.85;100.00
23473;BME280;11909;52.516;13.564;2023-07-16T01:14:02;100310.56;;;21.87;100.00
23473;BME280;11909;52.516;13.564;2023-07-16T01:16:30;100337.38;;;21.92;100.00
23473;BME280;11909;52.516;13.564;2023-07-16T01:18:58;100364.44;;;21.88;100.00
23473;BME280;11909;52.516;13.564;2023-07-16T01:21:32;100371.44;;;21.98;100.00
23473;BME280;11909;52.516;13.564;2023-07-16T01:24:33;100371.78;;;21.96;100.00
23473;BME280;11909;52.516;13.564;2023-07-16T01:27:21;100404.00;;;21.90;100.00
23473;BME280;11909;52.516;13.564;2023-07-16T01:29:58;100403.16;;;21.89;100.00
23473;BME280;11909;52.516;13.564;2023-07-16T01:32:30;100413.97;;;21.71;100.00
23473;BME280;11909;52.516;13.564;2023-07-16T01:34:59;100422.06;;;21.60;100.00
23473;BME280;11909;52.516;13.564;2023-07-16T01:37:27;100423.09;;;21.52;100.00
23473;BME280;11909;52.516;13.564;2023-07-16T01:39:56;100419.47;;;21.52;100.00
23473;BME280;11909;52.516;13.564;2023-07-16T01:42:23;100420.44;;;21.59;100.00
23473;BME280;11909;52.516;13.564;2023-07-16T01:44:51;100404.13;;;21.61;100.00
23473;BME280;11909;52.516;13.564;2023-07-16T01:47:24;100412.06;;;21.59;100.00
23473;BME280;11909;52.516;13.564;2023-07-16T01:49:57;100401.47;;;21.65;100.00
23473;BME280;11909;52.516;13.564;2023-07-16T01:52:25;100392.53;;;21.59;100.00
23473;BME280;11909;52.516;13.564;2023-07-16T01:54:53;100378.72;;;21.47;100.00
23473;BME280;11909;52.516;13.564;2023-07-16T01:57:21;100370.25;;;21.43;100.00
23473;BME280;11909;52.516;13.564;2023-07-16T01:59:49;100379.50;;;21.47;100.00
23473;BME280;11909;52.516;13.564;2023-07-16T02:02:17;100392.03;;;21.38;100.00
23473;BME280;11909;52.516;13.564;2023-07-16T02:04:46;100389.88;;;21.31;100.00
23473;BME280;11909;52.516;13.564;2023-07-16T02:07:14;100406.72;;;21.34;100.00
23473;BME280;11909;52.516;13.564;2023-07-16T02:09:42;100402.75;;;21.35;100.00
23473;BME280;11909;52.516;13.564;2023-07-16T02:12:10;100410.22;;;21.47;99.51
23473;BME280;11909;52.516;13.564;2023-07-16T02:14:38;100385.81;;;21.44;99.01
23473;BME280;11909;52.516;13.564;2023-07-16T02:17:06;100386.09;;;21.39;99.51
23473;BME280;11909;52.516;13.564;2023-07-16T02:19:34;100383.13;;;21.48;98.12
23473;BME280;11909;52.516;13.564;2023-07-16T02:22:03;100391.56;;;21.52;95.78
23473;BME280;11909;52.516;13.564;2023-07-16T02:24:31;100399.56;;;21.53;96.37
23473;BME280;11909;52.516;13.564;2023-07-16T02:26:59;100403.25;;;21.57;97.11
23473;BME280;11909;52.516;13.564;2023-07-16T02:29:27;100417.22;;;21.57;96.72
23473;BME280;11909;52.516;13.564;2023-07-16T02:31:55;100424.41;;;21.58;96.52
23473;BME280;11909;52.516;13.564;2023-07-16T02:34:23;100433.63;;;21.59;97.77
23473;BME280;11909;52.516;13.564;2023-07-16T02:36:51;100428.03;;;21.59;96.59
23473;BME280;11909;52.516;13.564;2023-07-16T02:39:20;100453.34;;;21.50;97.00
23473;BME280;11909;52.516;13.564;2023-07-16T02:41:48;100435.91;;;21.37;99.00
23473;BME280;11909;52.516;13.564;2023-07-16T02:44:16;100432.72;;;21.39;98.39
23473;BME280;11909;52.516;13.564;2023-07-16T02:46:44;100406.28;;;21.32;100.00
23473;BME280;11909;52.516;13.564;2023-07-16T02:49:12;100401.44;;;21.29;100.00
23473;BME280;11909;52.516;13.564;2023-07-16T02:51:40;100397.22;;;21.19;100.00
23473;BME280;11909;52.516;13.564;2023-07-16T02:54:08;100415.22;;;21.22;100.00
23473;BME280;11909;52.516;13.564;2023-07-16T02:56:37;100412.31;;;21.18;100.00
23473;BME280;11909;52.516;13.564;2023-07-16T02:59:05;100415.91;;;21.19;100.00
23473;BME280;11909;52.516;13.564;2023-07-16T03:01:33;100426.91;;;21.12;100.00
23473;BME280;11909;52.516;13.564;2023-07-16T03:04:01;100435.28;;;21.12;100.00
23473;BME280;11909;52.516;13.564;2023-07-16T03:06:29;100434.81;;;21.10;100.00
23473;BME280;11909;52.516;13.564;2023-07-16T03:08:57;100435.91;;;21.05;100.00
23473;BME280;11909;52.516;13.564;2023-07-16T03:11:25;100438.34;;;21.06;100.00
23473;BME280;11909;52.516;13.564;2023-07-16T03:13:54;100426.00;;;21.08;100.00
23473;BME280;11909;52.516;13.564;2023-07-16T03:16:22;100418.44;;;21.08;100.00
23473;BME280;11909;52.516;13.564;2023-07-16T03:18:50;100410.63;;;20.98;100.00
23473;BME280;11909;52.516;13.564;2023-07-16T03:21:17;100392.56;;;20.91;100.00
23473;BME280;11909;52.516;13.564;2023-07-16T03:23:46;100378.22;;;20.93;100.00
23473;BME280;11909;52.516;13.564;2023-07-16T03:26:13;100364.28;;;20.93;100.00
23473;BME280;11909;52.516;13.564;2023-07-16T03:28:42;100369.25;;;20.84;100.00
23473;BME280;11909;52.516;13.564;2023-07-16T03:31:11;100379.22;;;20.85;100.00
23473;BME280;11909;52.516;13.564;2023-07-16T03:33:39;100374.81;;;20.84;100.00
23473;BME280;11909;52.516;13.564;2023-07-16T03:36:07;100354.03;;;20.81;100.00
23473;BME280;11909;52.516;13.564;2023-07-16T03:38:35;100352.75;;;20.78;100.00
23473;BME280;11909;52.516;13.564;2023-07-16T03:41:03;100360.13;;;20.71;100.00
23473;BME280;11909;52.516;13.564;2023-07-16T03:43:31;100369.94;;;20.65;100.00
23473;BME280;11909;52.516;13.564;2023-07-16T03:45:58;100373.53;;;20.65;100.00
23473;BME280;11909;52.516;13.564;2023-07-16T03:48:28;100378.47;;;20.72;100.00
23473;BME280;11909;52.516;13.564;2023-07-16T03:50:56;100372.38;;;20.82;100.00
23473;BME280;11909;52.516;13.564;2023-07-16T03:53:24;100332.25;;;20.71;100.00
23473;BME280;11909;52.516;13.564;2023-07-16T03:55:52;100364.16;;;20.73;100.00
23473;BME280;11909;52.516;13.564;2023-07-16T03:58:20;100351.50;;;20.76;100.00
23473;BME280;11909;52.516;13.564;2023-07-16T04:00:50;100359.84;;;20.76;100.00
23473;BME280;11909;52.516;13.564;2023-07-16T04:03:19;100377.13;;;20.66;100.00
23473;BME280;11909;52.516;13.564;2023-07-16T04:05:48;100381.72;;;20.58;100.00
23473;BME280;11909;52.516;13.564;2023-07-16T04:08:16;100386.91;;;20.59;100.00
23473;BME280;11909;52.516;13.564;2023-07-16T04:10:44;100394.09;;;20.60;100.00
23473;BME280;11909;52.516;13.564;2023-07-16T04:13:12;100385.38;;;20.62;100.00
23473;BME280;11909;52.516;13.564;2023-07-16T04:15:40;100392.75;;;20.54;100.00
23473;BME280;11909;52.516;13.564;2023-07-16T04:18:08;100396.88;;;20.60;100.00
23473;BME280;11909;52.516;13.564;2023-07-16T04:20:35;100392.03;;;20.57;100.00
23473;BME280;11909;52.516;13.564;2023-07-16T04:23:05;100392.75;;;20.54;100.00
23473;BME280;11909;52.516;13.564;2023-07-16T04:25:33;100389.16;;;20.54;100.00
23473;BME280;11909;52.516;13.564;2023-07-16T04:28:01;100392.31;;;20.52;100.00
23473;BME280;11909;52.516;13.564;2023-07-16T04:30:30;100397.53;;;20.54;100.00
23473;BME280;11909;52.516;13.564;2023-07-16T04:32:58;100410.66;;;20.53;100.00
23473;BME280;11909;52.516;13.564;2023-07-16T04:35:27;100411.53;;;20.57;100.00
23473;BME280;11909;52.516;13.564;2023-07-16T04:37:54;100411.91;;;20.56;100.00
23473;BME280;11909;52.516;13.564;2023-07-16T04:40:24;100420.63;;;20.54;100.00
23473;BME280;11909;52.516;13.564;2023-07-16T04:42:52;100422.69;;;20.57;100.00
23473;BME280;11909;52.516;13.564;2023-07-16T04:45:20;100421.19;;;20.60;100.00
23473;BME280;11909;52.516;13.564;2023-07-16T04:47:48;100418.84;;;20.62;100.00
23473;BME280;11909;52.516;13.564;2023-07-16T04:50:15;100439.63;;;20.65;100.00
23473;BME280;11909;52.516;13.564;2023-07-16T04:52:44;100438.47;;;20.66;100.00
23473;BME280;11909;52.516;13.564;2023-07-16T04:55:11;100425.59;;;20.61;100.00
23473;BME280;11909;52.516;13.564;2023-07-16T04:57:41;100447.06;;;20.60;100.00
23473;BME280;11909;52.516;13.564;2023-07-16T05:00:09;100457.50;;;20.63;100.00
23473;BME280;11909;52.516;13.564;2023-07-16T05:02:37;100460.94;;;20.73;100.00
23473;BME280;11909;52.516;13.564;2023-07-16T05:05:06;100456.53;;;20.72;100.00
23473;BME280;11909;52.516;13.564;2023-07-16T05:07:34;100454.38;;;20.65;100.00
23473;BME280;11909;52.516;13.564;2023-07-16T05:10:03;100453.31;;;20.70;100.00
23473;BME280;11909;52.516;13.564;2023-07-16T05:12:30;100472.81;;;20.70;100.00
23473;BME280;11909;52.516;13.564;2023-07-16T05:15:00;100499.53;;;20.71;100.00
23473;BME280;11909;52.516;13.564;2023-07-16T05:17:28;100498.00;;;20.73;100.00
23473;BME280;11909;52.516;13.564;2023-07-16T05:19:56;100502.31;;;20.71;100.00
23473;BME280;11909;52.516;13.564;2023-07-16T05:22:24;100496.03;;;20.74;100.00
23473;BME280;11909;52.516;13.564;2023-07-16T05:24:52;100499.88;;;20.82;100.00
23473;BME280;11909;52.516;13.564;2023-07-16T05:27:20;100498.25;;;20.81;100.00
23473;BME280;11909;52.516;13.564;2023-07-16T05:29:48;100481.59;;;20.84;100.00
23473;BME280;11909;52.516;13.564;2023-07-16T05:32:17;100481.13;;;20.82;100.00
23473;BME280;11909;52.516;13.564;2023-07-16T05:34:45;100481.81;;;20.79;100.00
23473;BME280;11909;52.516;13.564;2023-07-16T05:37:13;100482.19;;;20.77;100.00
23473;BME280;11909;52.516;13.564;2023-07-16T05:39:41;100475.22;;;20.84;100.00
23473;BME280;11909;52.516;13.564;2023-07-16T05:42:09;100473.06;;;20.93;100.00
23473;BME280;11909;52.516;13.564;2023-07-16T05:44:37;100479.91;;;20.96;100.00
23473;BME280;11909;52.516;13.564;2023-07-16T05:47:05;100485.94;;;21.14;100.00
23473;BME280;11909;52.516;13.564;2023-07-16T05:49:34;100502.78;;;21.01;100.00
23473;BME280;11909;52.516;13.564;2023-07-16T05:52:03;100504.28;;;20.99;100.00
23473;BME280;11909;52.516;13.564;2023-07-16T05:54:31;100513.13;;;21.01;100.00
23473;BME280;11909;52.516;13.564;2023-07-16T05:56:59;100516.81;;;21.05;100.00
23473;BME280;11909;52.516;13.564;2023-07-16T05:59:27;100507.03;;;21.11;100.00
23473;BME280;11909;52.516;13.564;2023-07-16T06:01:55;100495.88;;;21.11;100.00
23473;BME280;11909;52.516;13.564;2023-07-16T06:04:25;100494.59;;;21.09;100.00
23473;BME280;11909;52.516;13.564;2023-07-16T06:06:54;100515.19;;;21.20;100.00
23473;BME280;11909;52.516;13.564;2023-07-16T06:09:22;100510.44;;;21.20;100.00
23473;BME280;11909;52.516;13.564;2023-07-16T06:11:50;100502.78;;;21.17;100.00
23473;BME280;11909;52.516;13.564;2023-07-16T06:14:18;100498.56;;;21.24;100.00
23473;BME280;11909;52.516;13.564;2023-07-16T06:16:46;100512.44;;;21.36;100.00
23473;BME280;11909;52.516;13.564;2023-07-16T06:19:14;100508.38;;;21.33;100.00
23473;BME280;11909;52.516;13.564;2023-07-16T06:21:42;100508.53;;;21.41;100.00
23473;BME280;11909;52.516;13.564;2023-07-16T06:24:11;100505.41;;;21.42;100.00
23473;BME280;11909;52.516;13.564;2023-07-16T06:26:43;100504.66;;;21.45;100.00
23473;BME280;11909;52.516;13.564;2023-07-16T06:29:11;100506.75;;;21.48;100.00
23473;BME280;11909;52.516;13.564;2023-07-16T06:31:39;100512.34;;;21.65;100.00
23473;BME280;11909;52.516;13.564;2023-07-16T06:34:07;100516.25;;;21.63;100.00
23473;BME280;11909;52.516;13.564;2023-07-16T06:36:34;100513.03;;;21.61;100.00
23473;BME280;11909;52.516;13.564;2023-07-16T06:39:03;100515.75;;;21.74;100.00
23473;BME280;11909;52.516;13.564;2023-07-16T06:41:33;100529.59;;;21.86;95.76
23473;BME280;11909;52.516;13.564;2023-07-16T06:44:00;100529.00;;;21.77;96.16
23473;BME280;11909;52.516;13.564;2023-07-16T06:46:29;100525.19;;;21.85;95.39
23473;BME280;11909;52.516;13.564;2023-07-16T06:48:57;100534.44;;;21.89;95.25
23473;BME280;11909;52.516;13.564;2023-07-16T06:51:25;100528.06;;;21.89;97.84
23473;BME280;11909;52.516;13.564;2023-07-16T06:53:54;100525.44;;;21.96;98.26
23473;BME280;11909;52.516;13.564;2023-07-16T06:56:23;100531.66;;;22.05;95.20
23473;BME280;11909;52.516;13.564;2023-07-16T06:58:52;100539.09;;;22.17;94.78
23473;BME280;11909;52.516;13.564;2023-07-16T07:01:20;100547.09;;;22.19;94.68
23473;BME280;11909;52.516;13.564;2023-07-16T07:03:48;100554.09;;;22.29;92.42
23473;BME280;11909;52.516;13.564;2023-07-16T07:06:16;100543.53;;;22.38;90.68
23473;BME280;11909;52.516;13.564;2023-07-16T07:08:44;100554.78;;;22.42;90.55
23473;BME280;11909;52.516;13.564;2023-07-16T07:11:12;100556.94;;;22.48;90.27
23473;BME280;11909;52.516;13.564;2023-07-16T07:13:40;100559.63;;;22.45;88.49
23473;BME280;11909;52.516;13.564;2023-07-16T07:16:10;100566.53;;;22.47;87.19
23473;BME280;11909;52.516;13.564;2023-07-16T07:18:38;100574.31;;;22.58;87.23
23473;BME280;11909;52.516;13.564;2023-07-16T07:21:06;100570.63;;;22.54;87.44
23473;BME280;11909;52.516;13.564;2023-07-16T07:23:34;100569.63;;;22.62;88.11
23473;BME280;11909;52.516;13.564;2023-07-16T07:26:01;100575.66;;;22.64;86.45
23473;BME280;11909;52.516;13.564;2023-07-16T07:28:30;100590.13;;;22.70;85.77
23473;BME280;11909;52.516;13.564;2023-07-16T07:30:59;100595.38;;;22.71;85.25
23473;BME280;11909;52.516;13.564;2023-07-16T07:33:28;100595.38;;;22.71;84.89
23473;BME280;11909;52.516;13.564;2023-07-16T07:35:56;100600.00;;;22.63;83.98
23473;BME280;11909;52.516;13.564;2023-07-16T07:38:24;100605.69;;;22.67;83.07
23473;BME280;11909;52.516;13.564;2023-07-16T07:40:52;100597.09;;;22.76;84.75
23473;BME280;11909;52.516;13.564;2023-07-16T07:43:20;100603.16;;;22.82;82.79
23473;BME280;11909;52.516;13.564;2023-07-16T07:45:48;100604.06;;;22.86;83.53
23473;BME280;11909;52.516;13.564;2023-07-16T07:48:16;100599.88;;;22.96;81.98
23473;BME280;11909;52.516;13.564;2023-07-16T07:50:46;100610.09;;;23.08;81.40
23473;BME280;11909;52.516;13.564;2023-07-16T07:53:18;100615.00;;;23.14;81.45
23473;BME280;11909;52.516;13.564;2023-07-16T07:55:46;100599.16;;;23.22;82.31
23473;BME280;11909;52.516;13.564;2023-07-16T07:58:14;100606.38;;;23.43;78.56
23473;BME280;11909;52.516;13.564;2023-07-16T08:00:42;100607.13;;;23.40;79.85
23473;BME280;11909;52.516;13.564;2023-07-16T08:03:09;100607.69;;;23.49;78.17
23473;BME280;11909;52.516;13.564;2023-07-16T08:05:37;100617.00;;;23.57;78.85
23473;BME280;11909;52.516;13.564;2023-07-16T08:08:07;100612.28;;;23.61;78.77
23473;BME280;11909;52.516;13.564;2023-07-16T08:10:35;100611.06;;;23.58;80.28
23473;BME280;11909;52.516;13.564;2023-07-16T08:13:03;100612.66;;;23.59;79.67
23473;BME280;11909;52.516;13.564;2023-07-16T08:15:30;100625.66;;;23.48;78.23
23473;BME280;11909;52.516;13.564;2023-07-16T08:17:58;100643.88;;;23.38;71.96
23473;BME280;11909;52.516;13.564;2023-07-16T08:20:27;100637.34;;;23.30;72.79
23473;BME280;11909;52.516;13.564;2023-07-16T08:22:55;100645.69;;;23.27;73.94
23473;BME280;11909;52.516;13.564;2023-07-16T08:25:24;100634.00;;;23.25;76.36
23473;BME280;11909;52.516;13.564;2023-07-16T08:27:53;100651.91;;;23.20;74.19
23473;BME280;11909;52.516;13.564;2023-07-16T08:30:21;100647.56;;;23.23;72.94
23473;BME280;11909;52.516;13.564;2023-07-16T08:32:49;100637.47;;;23.38;74.52
23473;BME280;11909;52.516;13.564;2023-07-16T08:35:17;100641.88;;;23.58;74.54
23473;BME280;11909;52.516;13.564;2023-07-16T08:37:46;100643.91;;;23.85;73.14
23473;BME280;11909;52.516;13.564;2023-07-16T08:40:14;100657.50;;;24.06;71.89
23473;BME280;11909;52.516;13.564;2023-07-16T08:42:45;100669.25;;;23.92;69.04
23473;BME280;11909;52.516;13.564;2023-07-16T08:45:14;100683.09;;;23.81;66.90
23473;BME280;11909;52.516;13.564;2023-07-16T08:47:42;100685.31;;;23.72;65.79
23473;BME280;11909;52.516;13.564;2023-07-16T08:50:11;100696.22;;;24.00;64.28
23473;BME280;11909;52.516;13.564;2023-07-16T08:52:40;100703.09;;;24.03;64.09
23473;BME280;11909;52.516;13.564;2023-07-16T08:55:08;100686.75;;;24.09;65.30
23473;BME280;11909;52.516;13.564;2023-07-16T08:57:36;100688.72;;;24.31;64.37
23473;BME280;11909;52.516;13.564;2023-07-16T09:00:07;100697.72;;;24.44;60.87
23473;BME280;11909;52.516;13.564;2023-07-16T09:02:36;100688.69;;;24.55;61.30
23473;BME280;11909;52.516;13.564;2023-07-16T09:05:04;100695.72;;;24.72;59.32
23473;BME280;11909;52.516;13.564;2023-07-16T09:07:33;100698.94;;;24.70;57.52
23473;BME280;11909;52.516;13.564;2023-07-16T09:10:01;100703.28;;;24.68;59.21
23473;BME280;11909;52.516;13.564;2023-07-16T09:12:29;100698.94;;;24.70;57.81
23473;BME280;11909;52.516;13.564;2023-07-16T09:14:57;100693.00;;;24.75;57.30
23473;BME280;11909;52.516;13.564;2023-07-16T09:17:26;100704.00;;;24.88;56.26
23473;BME280;11909;52.516;13.564;2023-07-16T09:19:55;100691.28;;;24.94;57.26
23473;BME280;11909;52.516;13.564;2023-07-16T09:22:24;100708.38;;;24.85;55.67
23473;BME280;11909;52.516;13.564;2023-07-16T09:24:53;100705.03;;;24.76;56.77
23473;BME280;11909;52.516;13.564;2023-07-16T09:27:20;100692.50;;;24.70;58.33
23473;BME280;11909;52.516;13.564;2023-07-16T09:29:48;100690.94;;;24.72;58.84
23473;BME280;11909;52.516;13.564;2023-07-16T09:32:17;100692.69;;;24.81;59.82
23473;BME280;11909;52.516;13.564;2023-07-16T09:34:50;100699.78;;;24.74;57.20
23473;BME280;11909;52.516;13.564;2023-07-16T09:37:18;100710.59;;;24.72;56.58
23473;BME280;11909;52.516;13.564;2023-07-16T09:39:47;100704.16;;;24.72;58.43
23473;BME280;11909;52.516;13.564;2023-07-16T09:42:17;100712.25;;;24.77;56.41
23473;BME280;11909;52.516;13.564;2023-07-16T09:44:49;100704.72;;;24.81;55.86
23473;BME280;11909;52.516;13.564;2023-07-16T09:47:19;100703.06;;;24.76;57.68
23473;BME280;11909;52.516;13.564;2023-07-16T09:49:51;100700.66;;;24.79;55.70
23473;BME280;11909;52.516;13.564;2023-07-16T09:52:19;100699.84;;;24.78;56.79
23473;BME280;11909;52.516;13.564;2023-07-16T09:54:49;100709.16;;;24.82;56.70
23473;BME280;11909;52.516;13.564;2023-07-16T09:57:20;100702.28;;;24.80;56.23
23473;BME280;11909;52.516;13.564;2023-07-16T09:59:50;100704.97;;;24.99;56.45
23473;BME280;11909;52.516;13.564;2023-07-16T10:02:22;100706.31;;;25.13;57.32
23473;BME280;11909;52.516;13.564;2023-07-16T10:04:51;100717.00;;;25.34;58.11
23473;BME280;11909;52.516;13.564;2023-07-16T10:07:23;100718.56;;;25.62;55.14
23473;BME280;11909;52.516;13.564;2023-07-16T10:09:54;100713.94;;;25.81;54.95
23473;BME280;11909;52.516;13.564;2023-07-16T10:12:24;100716.06;;;25.95;55.71
23473;BME280;11909;52.516;13.564;2023-07-16T10:14:54;100728.78;;;26.19;51.65
23473;BME280;11909;52.516;13.564;2023-07-16T10:17:24;100733.66;;;26.29;50.99
23473;BME280;11909;52.516;13.564;2023-07-16T10:19:58;100729.69;;;26.38;50.01
23473;BME280;11909;52.516;13.564;2023-07-16T10:22:34;100712.81;;;26.38;52.89
23473;BME280;11909;52.516;13.564;2023-07-16T10:25:08;100711.94;;;26.26;52.22
23473;BME280;11909;52.516;13.564;2023-07-16T10:27:37;100716.78;;;26.29;49.84
23473;BME280;11909;52.516;13.564;2023-07-16T10:30:06;100719.19;;;26.27;51.46
23473;BME280;11909;52.516;13.564;2023-07-16T10:32:34;100724.56;;;26.47;49.83
23473;BME280;11909;52.516;13.564;2023-07-16T10:35:05;100721.03;;;26.61;50.90
23473;BME280;11909;52.516;13.564;2023-07-16T10:37:33;100720.69;;;26.70;50.45
23473;BME280;11909;52.516;13.564;2023-07-16T10:40:02;100727.09;;;26.70;48.85
23473;BME280;11909;52.516;13.564;2023-07-16T10:42:31;100723.53;;;26.77;49.32
23473;BME280;11909;52.516;13.564;2023-07-16T10:45:01;100736.81;;;26.80;49.62
23473;BME280;11909;52.516;13.564;2023-07-16T10:47:30;100736.91;;;26.91;48.20
23473;BME280;11909;52.516;13.564;2023-07-16T10:49:59;100722.88;;;26.98;52.70
23473;BME280;11909;52.516;13.564;2023-07-16T10:52:28;100745.09;;;27.14;47.92
23473;BME280;11909;52.516;13.564;2023-07-16T10:54:56;100747.09;;;27.21;46.84
23473;BME280;11909;52.516;13.564;2023-07-16T10:57:25;100739.13;;;27.30;46.96
23473;BME280;11909;52.516;13.564;2023-07-16T10:59:55;100736.69;;;27.32;47.89
23473;BME280;11909;52.516;13.564;2023-07-16T11:02:24;100748.00;;;27.40;44.15
23473;BME280;11909;52.516;13.564;2023-07-16T11:04:53;100747.59;;;27.38;44.64
23473;BME280;11909;52.516;13.564;2023-07-16T11:07:21;100737.13;;;27.34;47.25
23473;BME280;11909;52.516;13.564;2023-07-16T11:09:53;100743.09;;;27.18;44.96
23473;BME280;11909;52.516;13.564;2023-07-16T11:12:23;100747.00;;;26.96;45.72
23473;BME280;11909;52.516;13.564;2023-07-16T11:14:54;100738.03;;;26.79;47.26
23473;BME280;11909;52.516;13.564;2023-07-16T11:17:24;100731.69;;;26.93;47.62
23473;BME280;11909;52.516;13.564;2023-07-16T11:19:53;100720.84;;;26.91;49.60
23473;BME280;11909;52.516;13.564;2023-07-16T11:22:25;100719.28;;;27.05;49.96
23473;BME280;11909;52.516;13.564;2023-07-16T11:24:55;100736.63;;;27.14;48.73
23473;BME280;11909;52.516;13.564;2023-07-16T11:27:26;100745.19;;;27.36;46.67
23473;BME280;11909;52.516;13.564;2023-07-16T11:29:55;100752.34;;;27.15;46.63
23473;BME280;11909;52.516;13.564;2023-07-16T11:32:27;100741.06;;;27.15;47.79
23473;BME280;11909;52.516;13.564;2023-07-16T11:34:56;100745.06;;;27.11;47.99
23473;BME280;11909;52.516;13.564;2023-07-16T11:37:26;100734.28;;;27.27;47.73
23473;BME280;11909;52.516;13.564;2023-07-16T11:39:57;100734.34;;;27.49;46.30
23473;BME280;11909;52.516;13.564;2023-07-16T11:42:28;100740.84;;;27.53;46.30
23473;BME280;11909;52.516;13.564;2023-07-16T11:44:56;100740.34;;;27.37;47.61
23473;BME280;11909;52.516;13.564;2023-07-16T11:47:24;100737.03;;;27.20;46.41
23473;BME280;11909;52.516;13.564;2023-07-16T11:49:53;100728.59;;;27.20;48.07
23473;BME280;11909;52.516;13.564;2023-07-16T11:52:24;100718.63;;;27.37;50.23
23473;BME280;11909;52.516;13.564;2023-07-16T11:54:54;100732.69;;;27.33;46.73
23473;BME280;11909;52.516;13.564;2023-07-16T11:57:23;100734.63;;;27.15;47.63
23473;BME280;11909;52.516;13.564;2023-07-16T11:59:51;100738.94;;;26.94;49.53
23473;BME280;11909;52.516;13.564;2023-07-16T12:02:19;100741.31;;;26.85;48.38
23473;BME280;11909;52.516;13.564;2023-07-16T12:04:48;100734.56;;;27.04;48.90
23473;BME280;11909;52.516;13.564;2023-07-16T12:07:30;100730.25;;;27.28;48.33
23473;BME280;11909;52.516;13.564;2023-07-16T12:10:01;100743.16;;;27.37;44.82
23473;BME280;11909;52.516;13.564;2023-07-16T12:12:31;100740.75;;;27.39;45.83
23473;BME280;11909;52.516;13.564;2023-07-16T12:15:07;100740.06;;;27.60;42.24
23473;BME280;11909;52.516;13.564;2023-07-16T12:17:35;100741.69;;;27.72;41.61
23473;BME280;11909;52.516;13.564;2023-07-16T12:20:04;100749.72;;;27.73;39.90
23473;BME280;11909;52.516;13.564;2023-07-16T12:22:33;100754.59;;;27.84;39.71
23473;BME280;11909;52.516;13.564;2023-07-16T12:25:04;100752.59;;;27.99;38.41
23473;BME280;11909;52.516;13.564;2023-07-16T12:27:33;100742.13;;;27.85;40.21
23473;BME280;11909;52.516;13.564;2023-07-16T12:30:02;100752.59;;;27.91;38.91
23473;BME280;11909;52.516;13.564;2023-07-16T12:32:29;100772.75;;;28.01;33.34
23473;BME280;11909;52.516;13.564;2023-07-16T12:34:58;100769.53;;;27.99;33.72
23473;BME280;11909;52.516;13.564;2023-07-16T12:37:28;100767.53;;;28.14;33.02
23473;BME280;11909;52.516;13.564;2023-07-16T12:39:59;100764.75;;;28.25;34.45
23473;BME280;11909;52.516;13.564;2023-07-16T12:42:27;100756.28;;;28.36;35.89
23473;BME280;11909;52.516;13.564;2023-07-16T12:44:57;100772.38;;;28.46;34.33